Time;durP1;ratioP1;P1;durP2;ratioP2;P2;SDS_P1;SDS_P2;PMS_P1;PMS_P2;Temp;Humidity;BMP_temperature;BMP_pressure;BME280_temperature;BME280_humidity;BME280_pressure;Samples;Min_cycle;Max_cycle;Signal;HPM_P1;HPM_P2
2020/12/06 00:02:05;;;;;;;28.50;19.10;;;;;;;4.15;90.37;97647.63;5072882;28;20216;-66
2020/12/06 00:04:31;;;;;;;27.45;18.55;;;;;;;4.16;91.08;97641.31;5072554;28;20194;-65
2020/12/06 00:06:58;;;;;;;26.60;18.60;;;;;;;4.03;91.32;97651.06;5072135;28;20193;-65
2020/12/06 00:09:24;;;;;;;27.80;18.88;;;;;;;4.15;91.02;97642.28;5072665;28;20661;-65
2020/12/06 00:11:52;;;;;;;26.60;18.58;;;;;;;4.04;91.23;97639.44;5072028;28;20205;-65
2020/12/06 00:14:18;;;;;;;24.83;18.27;;;;;;;4.02;91.35;97652.84;5072098;28;20192;-66
2020/12/06 00:16:48;;;;;;;27.85;18.73;;;;;;;4.10;91.18;97663.88;5072716;28;20560;-66
2020/12/06 00:19:14;;;;;;;29.40;19.13;;;;;;;4.07;90.89;97655.22;5072118;28;20292;-66
2020/12/06 00:21:40;;;;;;;27.98;19.13;;;;;;;4.05;91.68;97646.47;5072470;28;20590;-65
2020/12/06 00:24:07;;;;;;;25.95;18.33;;;;;;;4.07;91.14;97644.56;5071921;28;20275;-65
2020/12/06 00:26:33;;;;;;;27.02;18.27;;;;;;;3.99;91.75;97637.06;5072510;28;20619;-65
2020/12/06 00:28:59;;;;;;;25.98;18.70;;;;;;;3.94;92.20;97632.03;5072146;28;20627;-66
2020/12/06 00:31:25;;;;;;;31.90;20.75;;;;;;;4.05;91.94;97614.50;5072342;28;20280;-66
2020/12/06 00:33:51;;;;;;;22.63;16.85;;;;;;;3.94;91.53;97616.06;5071981;28;20208;-66
2020/12/06 00:36:18;;;;;;;29.52;18.30;;;;;;;3.89;92.28;97615.50;5072511;28;20303;-66
2020/12/06 00:38:44;;;;;;;27.45;19.20;;;;;;;3.93;92.19;97621.47;5072068;28;20315;-66
2020/12/06 00:41:12;;;;;;;25.63;18.80;;;;;;;4.03;92.36;97608.44;5072480;28;21022;-65
2020/12/06 00:43:39;;;;;;;27.60;19.25;;;;;;;4.01;91.85;97616.53;5072112;28;20204;-65
2020/12/06 00:46:05;;;;;;;26.23;18.30;;;;;;;3.95;91.88;97608.91;5072304;28;20658;-64
2020/12/06 00:48:32;;;;;;;24.85;18.55;;;;;;;4.04;91.81;97640.28;5072475;28;20221;-66
2020/12/06 00:50:58;;;;;;;27.42;19.45;;;;;;;3.94;92.29;97663.13;5072298;28;20292;-66
2020/12/06 00:53:24;;;;;;;24.70;18.42;;;;;;;3.97;92.10;97677.09;5071737;28;20273;-66
2020/12/06 00:55:50;;;;;;;28.42;17.85;;;;;;;3.96;92.34;97667.41;5072095;28;20296;-66
2020/12/06 00:58:17;;;;;;;27.70;18.52;;;;;;;3.83;92.69;97655.81;5071681;28;20589;-66
2020/12/06 01:00:47;;;;;;;25.02;17.80;;;;;;;3.76;93.31;97667.78;5072031;28;20191;-65
2020/12/06 01:03:13;;;;;;;26.73;18.90;;;;;;;3.82;93.53;97667.41;5072567;28;21022;-65
2020/12/06 01:05:40;;;;;;;25.15;18.50;;;;;;;3.79;93.48;97662.25;5071942;28;20327;-65
2020/12/06 01:08:06;;;;;;;31.02;19.83;;;;;;;3.90;93.40;97681.09;5071629;28;20273;-65
2020/12/06 01:10:32;;;;;;;32.22;19.63;;;;;;;3.99;93.02;97682.34;5071534;28;20272;-66
2020/12/06 01:12:58;;;;;;;34.70;22.08;;;;;;;3.89;92.79;97679.41;5071649;28;20200;-65
2020/12/06 01:15:26;;;;;;;32.50;21.13;;;;;;;3.84;93.10;97684.13;5071541;28;20214;-65
2020/12/06 01:17:52;;;;;;;27.77;19.58;;;;;;;3.87;93.07;97681.28;5071985;28;20603;-66
2020/12/06 01:20:18;;;;;;;27.45;19.52;;;;;;;3.90;92.81;97675.78;5071704;28;20628;-66
2020/12/06 01:22:44;;;;;;;28.50;19.33;;;;;;;3.96;92.88;97675.41;5071848;28;20288;-66
2020/12/06 01:25:10;;;;;;;31.02;20.33;;;;;;;3.96;92.41;97664.75;5071655;28;20269;-66
2020/12/06 01:27:37;;;;;;;29.00;18.95;;;;;;;3.96;92.32;97654.09;5070753;28;20210;-66
2020/12/06 01:30:04;;;;;;;31.85;19.35;;;;;;;3.97;91.73;97646.97;5051327;28;20276;-66
2020/12/06 01:32:32;;;;;;;32.05;21.45;;;;;;;3.95;92.47;97649.69;5051569;28;20620;-65
2020/12/06 01:34:59;;;;;;;28.63;19.33;;;;;;;3.88;92.50;97643.06;5051700;28;20355;-65
2020/12/06 01:37:25;;;;;;;32.67;21.08;;;;;;;3.83;93.05;97647.81;5055488;28;20616;-66
2020/12/06 01:39:51;;;;;;;34.20;21.42;;;;;;;3.85;92.85;97656.56;5055656;28;20539;-66
2020/12/06 01:42:17;;;;;;;29.63;19.83;;;;;;;3.79;93.23;97672.91;5061997;28;20200;-66
2020/12/06 01:44:43;;;;;;;29.20;20.50;;;;;;;3.89;92.99;97689.16;5075577;28;20663;-66
2020/12/06 01:47:10;;;;;;;29.45;19.58;;;;;;;3.84;93.21;97699.25;5075440;28;20185;-66
2020/12/06 01:49:38;;;;;;;33.20;20.85;;;;;;;3.99;93.11;97710.78;5075453;28;20205;-65
2020/12/06 01:52:06;;;;;;;30.15;20.55;;;;;;;4.00;92.84;97713.31;5075155;28;20297;-66
2020/12/06 01:54:33;;;;;;;31.55;20.40;;;;;;;3.96;92.43;97712.69;5075469;28;20183;-66
2020/12/06 01:57:00;;;;;;;30.05;20.60;;;;;;;3.87;92.80;97707.91;5074887;28;20684;-65
2020/12/06 01:59:26;;;;;;;33.70;21.40;;;;;;;3.82;93.14;97704.69;5074921;28;20232;-66
2020/12/06 02:01:55;;;;;;;32.33;21.55;;;;;;;3.94;93.38;97713.72;5074786;28;20182;-66
2020/12/06 02:04:24;;;;;;;33.80;20.63;;;;;;;3.83;93.25;97705.53;5074643;28;20243;-65
2020/12/06 02:06:51;;;;;;;30.52;19.80;;;;;;;3.76;93.96;97700.56;5075105;28;20188;-65
2020/12/06 02:09:18;;;;;;;30.55;19.83;;;;;;;3.86;93.92;97684.88;5075048;28;20295;-66
2020/12/06 02:11:44;;;;;;;30.00;19.73;;;;;;;3.81;93.61;97691.47;5075107;28;20679;-66
2020/12/06 02:14:11;;;;;;;28.58;18.77;;;;;;;3.71;94.63;97673.38;5074386;28;20199;-66
2020/12/06 02:16:37;;;;;;;28.80;20.67;;;;;;;3.95;94.02;97678.16;5074942;28;20231;-66
2020/12/06 02:19:05;;;;;;;34.28;20.98;;;;;;;4.00;92.93;97670.72;5074578;28;20212;-65
2020/12/06 02:21:34;;;;;;;34.60;18.88;;;;;;;4.00;92.40;97665.41;5074938;28;20191;-65
2020/12/06 02:24:00;;;;;;;34.03;19.85;;;;;;;3.96;92.78;97666.56;5074263;28;20253;-66
2020/12/06 02:26:26;;;;;;;32.70;20.27;;;;;;;4.04;92.98;97671.41;5073760;28;20176;-66
2020/12/06 02:28:52;;;;;;;32.80;20.88;;;;;;;4.13;92.28;97663.69;5074324;28;20641;-65
2020/12/06 02:31:18;;;;;;;29.65;17.42;;;;;;;4.05;92.65;97651.78;5074179;28;20751;-66
2020/12/06 02:33:46;;;;;;;28.45;19.00;;;;;;;4.02;92.63;97638.69;5074641;28;20196;-66
2020/12/06 02:36:12;;;;;;;30.60;19.48;;;;;;;3.99;92.67;97634.41;5074111;28;20204;-65
2020/12/06 02:38:39;;;;;;;31.38;18.70;;;;;;;4.05;93.12;97650.00;5074086;28;20287;-66
2020/12/06 02:41:05;;;;;;;33.08;20.52;;;;;;;4.09;92.33;97653.31;5074498;28;20191;-66
2020/12/06 02:43:31;;;;;;;29.83;18.98;;;;;;;4.03;92.82;97659.06;5074304;28;20685;-66
2020/12/06 02:45:57;;;;;;;32.75;20.88;;;;;;;4.00;92.89;97667.22;5073717;28;20199;-65
2020/12/06 02:48:23;;;;;;;30.63;18.30;;;;;;;4.03;92.98;97654.56;5074393;28;20190;-65
2020/12/06 02:50:50;;;;;;;30.60;20.08;;;;;;;4.08;92.55;97646.28;5074319;28;20632;-66
2020/12/06 02:53:16;;;;;;;29.48;18.67;;;;;;;3.90;93.30;97634.97;5073947;28;20203;-66
2020/12/06 02:55:43;;;;;;;30.98;18.00;;;;;;;3.99;93.16;97636.22;5073988;28;20231;-66
2020/12/06 02:58:09;;;;;;;28.50;18.00;;;;;;;4.25;91.93;97631.91;5073034;28;20288;-66
2020/12/06 03:00:36;;;;;;;30.20;18.80;;;;;;;4.12;92.24;97631.84;5074142;28;20197;-66
2020/12/06 03:03:02;;;;;;;29.17;17.98;;;;;;;4.12;92.79;97637.16;5074035;28;20209;-65
2020/12/06 03:05:28;;;;;;;30.77;18.60;;;;;;;4.07;92.30;97631.25;5073531;28;20295;-66
2020/12/06 03:07:54;;;;;;;30.20;19.05;;;;;;;4.07;92.52;97620.59;5073101;28;20282;-65
2020/12/06 03:10:21;;;;;;;31.88;18.08;;;;;;;4.00;92.59;97625.44;5073497;28;20295;-66
2020/12/06 03:12:48;;;;;;;27.75;17.92;;;;;;;3.94;92.90;97616.06;5073447;28;20282;-65
2020/12/06 03:15:14;;;;;;;31.85;19.25;;;;;;;4.18;92.48;97613.66;5073682;28;20704;-65
2020/12/06 03:17:40;;;;;;;25.75;17.95;;;;;;;4.09;92.10;97626.69;5073198;28;20289;-65
2020/12/06 03:20:06;;;;;;;24.50;16.20;;;;;;;4.22;91.90;97643.59;5073551;28;20212;-65
2020/12/06 03:22:33;;;;;;;31.05;18.35;;;;;;;4.34;91.15;97641.97;5073268;28;20224;-65
2020/12/06 03:25:01;;;;;;;27.20;17.15;;;;;;;4.28;91.10;97639.72;5073344;28;20236;-65
2020/12/06 03:27:27;;;;;;;25.77;18.02;;;;;;;4.31;91.11;97648.34;5072697;28;20190;-66
2020/12/06 03:29:54;;;;;;;28.20;17.42;;;;;;;4.09;91.54;97637.34;5073626;28;20725;-66
2020/12/06 03:32:21;;;;;;;25.67;16.10;;;;;;;4.18;91.68;97637.63;5073559;28;20210;-66
2020/12/06 03:34:47;;;;;;;27.58;16.90;;;;;;;4.25;91.62;97632.78;5073313;28;20221;-66
2020/12/06 03:37:13;;;;;;;24.90;16.23;;;;;;;4.44;90.60;97640.44;5073515;28;20336;-66
2020/12/06 03:39:39;;;;;;;28.67;16.90;;;;;;;4.44;89.77;97661.75;5073119;28;20676;-66
2020/12/06 03:42:06;;;;;;;29.67;18.75;;;;;;;4.35;89.92;97676.50;5073386;28;20544;-66
2020/12/06 03:44:32;;;;;;;27.55;17.05;;;;;;;4.29;90.50;97658.22;5072843;28;20276;-66
2020/12/06 03:46:59;;;;;;;28.17;18.17;;;;;;;4.21;90.57;97627.75;5073104;28;20200;-66
2020/12/06 03:49:26;;;;;;;24.85;16.83;;;;;;;4.13;91.13;97628.22;5072459;28;20200;-65
2020/12/06 03:51:52;;;;;;;25.02;16.05;;;;;;;4.09;91.65;97637.34;5072968;28;20205;-66
2020/12/06 03:54:18;;;;;;;25.00;16.60;;;;;;;4.24;92.05;97638.19;5072529;28;20207;-65
2020/12/06 03:56:44;;;;;;;29.42;18.13;;;;;;;4.09;91.70;97650.66;5072579;28;20235;-65
2020/12/06 03:59:10;;;;;;;31.55;17.05;;;;;;;4.20;91.64;97640.19;5071995;28;20235;-66
2020/12/06 04:01:36;;;;;;;28.23;17.25;;;;;;;4.17;91.73;97640.38;5072798;28;20727;-65
2020/12/06 04:04:03;;;;;;;28.65;17.58;;;;;;;4.18;91.16;97645.63;5072852;28;20269;-65
2020/12/06 04:06:29;;;;;;;33.25;19.42;;;;;;;4.24;91.32;97647.03;5072257;28;20282;-66
2020/12/06 04:08:56;;;;;;;29.38;18.23;;;;;;;4.17;91.19;97651.88;5072366;28;20224;-66
2020/12/06 04:11:22;;;;;;;29.48;17.45;;;;;;;4.44;90.69;97650.25;5072303;28;20184;-66
2020/12/06 04:13:48;;;;;;;24.15;14.73;;;;;;;4.43;89.24;97646.69;5072685;28;20238;-66
2020/12/06 04:16:14;;;;;;;28.08;17.40;;;;;;;4.20;90.40;97640.19;5072075;28;20265;-65
2020/12/06 04:18:40;;;;;;;26.60;16.45;;;;;;;4.22;90.99;97654.25;5072139;28;20209;-65
2020/12/06 04:21:11;;;;;;;26.45;16.33;;;;;;;4.42;90.58;97654.81;5072298;28;20274;-65
2020/12/06 04:23:38;;;;;;;26.58;16.02;;;;;;;4.39;90.15;97650.53;5072584;28;20244;-65
2020/12/06 04:26:06;;;;;;;32.28;17.27;;;;;;;4.16;90.83;97650.19;5072292;28;20272;-64
2020/12/06 04:28:33;;;;;;;28.92;17.45;;;;;;;4.22;90.96;97659.59;5072478;28;20585;-65
2020/12/06 04:30:59;;;;;;;30.70;17.38;;;;;;;4.06;91.82;97654.38;5072412;28;20202;-65
2020/12/06 04:33:25;;;;;;;29.75;17.67;;;;;;;4.09;91.99;97662.19;5071827;28;20617;-65
2020/12/06 04:35:51;;;;;;;27.73;17.92;;;;;;;4.37;91.42;97652.44;5072120;28;20309;-65
2020/12/06 04:38:19;;;;;;;29.10;17.85;;;;;;;4.37;90.29;97655.94;5071529;28;20430;-65
2020/12/06 04:40:45;;;;;;;26.75;16.95;;;;;;;4.32;90.41;97655.41;5071914;28;20293;-66
2020/12/06 04:43:14;;;;;;;27.65;15.93;;;;;;;4.33;90.85;97656.25;5071991;28;20274;-66
2020/12/06 04:45:40;;;;;;;24.30;15.93;;;;;;;4.30;90.96;97646.66;5071926;28;20203;-67
2020/12/06 04:48:09;;;;;;;24.60;16.38;;;;;;;4.32;90.75;97638.53;5072325;28;20261;-65
2020/12/06 04:50:36;;;;;;;26.30;15.50;;;;;;;4.26;90.48;97613.16;5071670;28;20271;-66
2020/12/06 04:53:06;;;;;;;29.42;16.92;;;;;;;4.16;91.09;97617.34;5072180;28;20192;-65
2020/12/06 04:55:34;;;;;;;28.13;16.73;;;;;;;4.15;91.32;97599.66;5071530;28;20222;-65
2020/12/06 04:58:02;;;;;;;29.77;18.05;;;;;;;4.12;91.87;97623.84;5071834;28;20695;-65
2020/12/06 05:00:33;;;;;;;29.10;18.08;;;;;;;4.29;91.62;97644.06;5071744;28;20186;-65
2020/12/06 05:03:01;;;;;;;28.63;17.67;;;;;;;4.24;91.28;97631.03;5071743;28;20189;-65
2020/12/06 05:05:37;;;;;;;28.75;17.02;;;;;;;4.33;91.21;97635.78;5072001;28;20638;-65
2020/12/06 05:08:08;;;;;;;26.02;16.75;;;;;;;4.23;90.84;97621.34;5071164;28;20195;-65
2020/12/06 05:10:38;;;;;;;29.30;18.52;;;;;;;4.14;90.87;97621.94;5074849;28;20602;-65
2020/12/06 05:13:04;;;;;;;30.77;18.55;;;;;;;4.29;91.28;97612.94;5076312;28;20196;-65
2020/12/06 05:15:30;;;;;;;30.98;17.30;;;;;;;4.27;91.30;97612.19;5075726;28;20286;-65
2020/12/06 05:17:58;;;;;;;32.13;19.45;;;;;;;4.32;90.64;97618.09;5075674;28;20186;-65
2020/12/06 05:20:25;;;;;;;28.08;16.85;;;;;;;4.36;90.77;97624.94;5075984;28;20280;-65
2020/12/06 05:22:51;;;;;;;28.85;18.05;;;;;;;4.29;90.35;97628.94;5075555;28;20183;-65
2020/12/06 05:25:18;;;;;;;27.90;16.55;;;;;;;4.41;90.38;97632.66;5075328;28;20205;-65
2020/12/06 05:27:45;;;;;;;28.02;15.68;;;;;;;4.30;90.27;97637.81;5075357;28;20290;-67
2020/12/06 05:30:11;;;;;;;30.65;17.70;;;;;;;4.30;90.45;97632.47;5075610;28;20248;-65
2020/12/06 05:32:38;;;;;;;29.60;17.13;;;;;;;4.28;91.02;97632.56;5075439;28;20750;-66
2020/12/06 05:35:05;;;;;;;29.38;17.20;;;;;;;4.35;90.84;97641.88;5075363;28;20285;-66
2020/12/06 05:37:32;;;;;;;28.63;17.95;;;;;;;4.48;90.07;97644.63;5075364;28;20669;-65
2020/12/06 05:40:02;;;;;;;28.13;17.33;;;;;;;4.52;89.55;97656.78;5075064;28;20222;-66
2020/12/06 05:42:30;;;;;;;29.05;17.20;;;;;;;4.62;88.71;97657.03;5075139;28;20237;-65
2020/12/06 05:44:58;;;;;;;26.60;16.58;;;;;;;4.61;88.27;97663.31;5075538;28;20186;-65
2020/12/06 05:47:24;;;;;;;31.83;18.00;;;;;;;4.64;87.73;97665.78;5075181;28;20283;-65
2020/12/06 05:49:51;;;;;;;31.10;17.90;;;;;;;4.55;88.43;97661.06;5075193;28;20214;-66
2020/12/06 05:52:18;;;;;;;32.80;18.20;;;;;;;4.60;88.46;97657.13;5074980;28;20286;-65
2020/12/06 05:54:44;;;;;;;28.58;16.95;;;;;;;4.59;88.46;97658.09;5075245;28;20190;-66
2020/12/06 05:57:12;;;;;;;30.55;16.88;;;;;;;4.43;88.88;97651.19;5075275;28;20216;-65
2020/12/06 05:59:38;;;;;;;28.38;17.45;;;;;;;4.39;89.00;97638.06;5074690;28;20598;-65
2020/12/06 06:02:06;;;;;;;28.98;17.27;;;;;;;4.34;89.46;97641.97;5074730;28;20268;-66
2020/12/06 06:04:37;;;;;;;26.80;15.45;;;;;;;4.43;90.02;97649.34;5075246;28;20218;-65
2020/12/06 06:07:05;;;;;;;26.02;15.82;;;;;;;4.60;88.82;97651.81;5074739;28;20224;-66
2020/12/06 06:09:37;;;;;;;29.00;17.38;;;;;;;4.43;88.74;97661.84;5073649;28;20187;-65
2020/12/06 06:12:22;;;;;;;30.55;18.02;;;;;;;4.44;89.41;97655.56;5074741;28;20647;-66
2020/12/06 06:14:48;;;;;;;32.58;17.67;;;;;;;4.49;89.62;97658.78;5074396;28;20205;-66
2020/12/06 06:17:16;;;;;;;28.88;17.05;;;;;;;4.46;89.39;97651.84;5074535;28;20212;-66
2020/12/06 06:19:44;;;;;;;29.05;17.92;;;;;;;4.35;89.67;97657.00;5074738;28;20664;-66
2020/12/06 06:22:12;;;;;;;28.70;17.52;;;;;;;4.27;90.12;97636.16;5073828;28;20242;-65
2020/12/06 06:24:40;;;;;;;28.08;16.08;;;;;;;4.32;90.38;97634.09;5074884;28;20589;-66
2020/12/06 06:27:06;;;;;;;29.13;16.85;;;;;;;4.24;90.48;97635.53;5074666;28;20202;-66
2020/12/06 06:29:32;;;;;;;29.02;17.10;;;;;;;4.42;90.42;97641.47;5074629;28;20581;-65
2020/12/06 06:31:58;;;;;;;29.48;16.52;;;;;;;4.52;89.57;97659.47;5074679;28;20730;-65
2020/12/06 06:34:30;;;;;;;28.38;17.33;;;;;;;4.54;89.22;97662.00;5074593;28;20663;-65
2020/12/06 06:36:56;;;;;;;35.38;18.02;;;;;;;4.51;89.26;97660.38;5073956;28;20233;-65
2020/12/06 06:39:24;;;;;;;27.35;16.35;;;;;;;4.60;89.14;97664.28;5073993;28;20242;-66
2020/12/06 06:41:58;;;;;;;30.55;17.80;;;;;;;4.49;89.40;97672.09;5073692;28;20288;-65
2020/12/06 06:44:26;;;;;;;30.98;18.00;;;;;;;4.45;89.90;97682.09;5074097;28;20218;-66
2020/12/06 06:46:53;;;;;;;29.00;18.35;;;;;;;4.50;89.96;97680.00;5074198;28;20189;-65
2020/12/06 06:49:20;;;;;;;33.40;18.00;;;;;;;4.53;89.74;97676.28;5073972;28;20188;-65
2020/12/06 06:51:53;;;;;;;26.42;15.90;;;;;;;4.54;89.71;97673.50;5073853;28;20720;-66
2020/12/06 06:54:26;;;;;;;30.27;18.23;;;;;;;4.64;88.76;97691.59;5074122;28;20641;-67
2020/12/06 06:56:54;;;;;;;26.35;18.13;;;;;;;4.54;89.21;97696.66;5073434;28;20219;-68
2020/12/06 06:59:35;;;;;;;30.15;17.75;;;;;;;4.56;89.55;97698.25;5073753;28;20320;-66
2020/12/06 07:02:02;;;;;;;29.55;16.95;;;;;;;4.52;89.27;97695.88;5073388;28;20195;-67
2020/12/06 07:04:28;;;;;;;28.95;18.08;;;;;;;4.58;89.09;97707.00;5073749;28;20286;-66
2020/12/06 07:06:55;;;;;;;29.38;16.90;;;;;;;4.56;88.94;97700.06;5073632;28;20297;-65
2020/12/06 07:09:23;;;;;;;102.72;27.85;;;;;;;4.62;89.10;97688.19;5073289;28;20197;-66
2020/12/06 07:11:50;;;;;;;33.53;18.08;;;;;;;4.60;88.79;97688.25;5073369;28;20200;-66
2020/12/06 07:14:16;;;;;;;29.45;18.00;;;;;;;4.63;88.78;97685.38;5073627;28;20276;-66
2020/12/06 07:16:43;;;;;;;32.60;17.38;;;;;;;4.59;88.82;97687.41;5073082;28;20219;-66
2020/12/06 07:19:09;;;;;;;31.90;18.02;;;;;;;4.66;88.80;97679.00;5073748;28;20293;-67
2020/12/06 07:21:37;;;;;;;32.05;18.15;;;;;;;4.77;88.29;97681.81;5073854;28;20291;-67
2020/12/06 07:24:04;;;;;;;28.88;17.42;;;;;;;4.79;88.19;97688.81;5073121;28;20246;-66
2020/12/06 07:26:31;;;;;;;28.63;16.15;;;;;;;4.85;87.47;97686.69;5073540;28;20647;-66
2020/12/06 07:28:58;;;;;;;33.80;18.17;;;;;;;4.83;87.55;97681.44;5073391;28;20666;-66
2020/12/06 07:31:25;;;;;;;29.52;17.90;;;;;;;4.57;88.20;97677.81;5073054;28;20243;-66
2020/12/06 07:33:52;;;;;;;31.42;17.85;;;;;;;4.54;89.19;97685.97;5071721;28;20287;-66
2020/12/06 07:36:18;;;;;;;26.55;17.08;;;;;;;4.52;89.27;97680.78;5071205;28;20591;-66
2020/12/06 07:38:44;;;;;;;27.58;16.50;;;;;;;4.50;90.11;97671.13;5073402;28;20731;-66
2020/12/06 07:41:12;;;;;;;27.00;16.15;;;;;;;4.41;90.34;97675.28;5073454;28;20234;-67
2020/12/06 07:43:39;;;;;;;28.65;16.70;;;;;;;4.36;90.72;97674.69;5072867;28;20203;-67
2020/12/06 07:46:15;;;;;;;27.65;17.15;;;;;;;4.24;91.45;97667.50;5072577;28;20191;-67
2020/12/06 07:48:42;;;;;;;27.67;16.92;;;;;;;4.30;91.31;97667.97;5073218;28;20192;-67
2020/12/06 07:51:08;;;;;;;31.15;17.77;;;;;;;4.33;91.44;97666.91;5072781;28;20197;-66
2020/12/06 07:53:48;;;;;;;27.00;17.10;;;;;;;4.24;91.62;97660.34;5072778;28;20603;-66
2020/12/06 07:56:18;;;;;;;23.92;14.27;;;;;;;4.23;92.33;97671.97;5072948;28;20635;-67
2020/12/06 07:58:52;;;;;;;26.75;16.35;;;;;;;4.28;92.40;97671.69;5072753;28;20232;-66
2020/12/06 08:01:18;;;;;;;28.50;17.42;;;;;;;4.32;91.79;97671.38;5072014;28;20283;-66
2020/12/06 08:03:46;;;;;;;32.00;17.65;;;;;;;4.22;92.52;97680.88;5072439;28;20211;-66
2020/12/06 08:06:15;;;;;;;29.83;17.30;;;;;;;4.34;92.57;97674.81;5071721;28;20195;-66
2020/12/06 08:08:48;;;;;;;29.15;17.60;;;;;;;4.42;91.86;97676.97;5072556;28;20612;-66
2020/12/06 08:11:18;;;;;;;31.13;19.20;;;;;;;4.48;91.27;97681.06;5072266;28;20185;-66
2020/12/06 08:13:50;;;;;;;31.15;18.55;;;;;;;4.63;90.72;97673.88;5072599;28;20270;-67
2020/12/06 08:16:17;;;;;;;32.20;19.48;;;;;;;4.69;90.21;97676.16;5072261;28;20582;-67
2020/12/06 08:18:43;;;;;;;30.80;17.45;;;;;;;4.81;89.22;97662.88;5072231;28;20202;-67
2020/12/06 08:21:09;;;;;;;29.88;17.38;;;;;;;4.70;89.17;97665.38;5072041;28;20192;-67
2020/12/06 08:23:37;;;;;;;29.27;17.27;;;;;;;4.68;89.55;97672.66;5072270;28;20654;-66
2020/12/06 08:26:04;;;;;;;30.35;16.52;;;;;;;4.73;89.43;97669.69;5072105;28;20211;-67
2020/12/06 08:28:32;;;;;;;31.25;17.55;;;;;;;4.83;89.04;97667.25;5072101;28;20235;-66
2020/12/06 08:30:58;;;;;;;28.48;17.85;;;;;;;4.90;88.27;97666.75;5072030;28;20290;-66
2020/12/06 08:33:26;;;;;;;28.52;17.20;;;;;;;5.10;86.89;97662.75;5072265;28;20626;-68
2020/12/06 08:35:56;;;;;;;27.77;16.88;;;;;;;5.14;86.56;97650.94;5071395;28;20202;-66
2020/12/06 08:38:23;;;;;;;28.13;19.48;;;;;;;5.16;86.88;97646.34;5071693;28;20196;-66
2020/12/06 08:41:05;;;;;;;30.38;18.52;;;;;;;4.99;87.10;97667.94;5072012;28;20614;-66
2020/12/06 08:43:47;;;;;;;37.42;22.65;;;;;;;5.04;87.45;97673.81;5072150;28;20234;-67
2020/12/06 08:46:15;;;;;;;26.80;17.65;;;;;;;4.87;87.39;97669.63;5071967;28;20187;-66
2020/12/06 08:48:42;;;;;;;33.45;17.98;;;;;;;4.87;87.71;97676.78;5072176;28;20303;-67
2020/12/06 08:51:23;;;;;;;29.48;18.10;;;;;;;4.83;88.35;97683.25;5071676;28;20294;-66
2020/12/06 08:53:49;;;;;;;28.95;17.00;;;;;;;4.86;88.41;97691.91;5071634;28;20601;-66
2020/12/06 08:56:30;;;;;;;31.25;17.60;;;;;;;4.94;88.21;97694.94;5071692;28;20261;-65
2020/12/06 08:59:04;;;;;;;30.38;17.95;;;;;;;5.09;87.38;97687.75;5071708;28;20279;-66
2020/12/06 09:01:30;;;;;;;36.50;19.83;;;;;;;4.89;88.05;97693.53;5071366;28;20188;-66
2020/12/06 09:03:57;;;;;;;29.38;18.17;;;;;;;5.00;88.37;97683.88;5071592;28;20226;-67
2020/12/06 09:06:23;;;;;;;28.60;17.92;;;;;;;4.94;88.13;97691.41;5071203;28;20231;-67
2020/12/06 09:08:49;;;;;;;33.50;18.65;;;;;;;4.99;87.96;97691.94;5071704;28;20277;-67
2020/12/06 09:11:16;;;;;;;30.58;16.92;;;;;;;4.98;88.20;97691.09;5072148;28;20202;-67
2020/12/06 09:13:43;;;;;;;33.00;19.10;;;;;;;4.99;88.20;97683.94;5071777;28;20253;-67
2020/12/06 09:16:10;;;;;;;30.50;17.88;;;;;;;5.21;87.92;97686.91;5071433;28;20202;-67
2020/12/06 09:18:36;;;;;;;31.48;18.98;;;;;;;5.18;87.36;97695.13;5071895;28;20696;-68
2020/12/06 09:21:04;;;;;;;33.28;19.58;;;;;;;5.21;87.10;97694.91;5071301;28;20241;-67
2020/12/06 09:23:30;;;;;;;32.25;20.27;;;;;;;5.43;86.36;97690.81;5071811;28;20187;-68
2020/12/06 09:25:58;;;;;;;30.05;19.60;;;;;;;5.38;86.02;97672.44;5071649;28;20191;-67
2020/12/06 09:28:25;;;;;;;45.80;26.52;;;;;;;5.47;86.21;97670.09;5071686;28;20295;-67
2020/12/06 09:30:51;;;;;;;31.73;19.73;;;;;;;5.51;85.83;97671.59;5071181;28;20191;-67
2020/12/06 09:33:18;;;;;;;32.67;19.35;;;;;;;5.50;85.64;97678.75;5071000;28;20266;-68
2020/12/06 09:35:44;;;;;;;30.35;18.23;;;;;;;5.44;85.54;97673.81;5071333;28;20204;-68
2020/12/06 09:38:10;;;;;;;35.60;18.67;;;;;;;5.46;85.95;97674.59;5071465;28;20205;-68
2020/12/06 09:40:36;;;;;;;29.80;19.65;;;;;;;5.55;85.58;97673.09;5071149;28;20292;-67
2020/12/06 09:43:02;;;;;;;27.75;17.80;;;;;;;5.98;84.19;97680.84;5071719;28;20188;-67
2020/12/06 09:45:29;;;;;;;33.35;18.17;;;;;;;6.09;82.38;97690.78;5071112;28;20291;-67
2020/12/06 09:47:55;;;;;;;32.15;19.20;;;;;;;5.90;82.83;97685.81;5071606;28;20200;-67
2020/12/06 09:50:22;;;;;;;33.63;20.40;;;;;;;5.76;84.16;97701.00;5071526;28;20201;-66
2020/12/06 09:52:49;;;;;;;27.90;19.85;;;;;;;5.72;84.52;97706.66;5071489;28;20208;-67
2020/12/06 09:55:15;;;;;;;35.78;20.98;;;;;;;5.81;83.99;97714.03;5071309;28;20217;-67
2020/12/06 09:57:41;;;;;;;38.75;22.27;;;;;;;5.87;83.51;97712.75;5074161;28;20220;-67
2020/12/06 10:00:08;;;;;;;83.47;44.95;;;;;;;5.80;84.39;97709.66;5075037;28;20228;-68
2020/12/06 10:02:34;;;;;;;36.67;20.63;;;;;;;5.84;84.26;97705.81;5074464;28;20196;-68
2020/12/06 10:05:00;;;;;;;33.45;19.67;;;;;;;5.93;84.38;97701.66;5074988;28;20216;-66
2020/12/06 10:07:28;;;;;;;34.67;19.95;;;;;;;5.91;83.87;97707.09;5074177;28;20704;-68
2020/12/06 10:09:54;;;;;;;33.85;21.73;;;;;;;5.93;83.75;97707.00;5074264;28;20264;-68
2020/12/06 10:12:20;;;;;;;35.30;19.88;;;;;;;5.98;83.80;97708.41;5074489;28;20200;-67
2020/12/06 10:14:46;;;;;;;31.40;20.30;;;;;;;5.89;83.51;97718.84;5074300;28;20291;-68
2020/12/06 10:17:13;;;;;;;34.60;20.17;;;;;;;5.75;83.88;97723.31;5074127;28;20680;-66
2020/12/06 10:19:39;;;;;;;33.85;21.70;;;;;;;5.87;84.03;97726.13;5074145;28;20288;-67
2020/12/06 10:22:05;;;;;;;33.42;20.88;;;;;;;5.93;83.84;97717.69;5074603;28;20591;-67
2020/12/06 10:24:32;;;;;;;33.00;20.42;;;;;;;6.01;82.95;97715.34;5074140;28;20184;-67
2020/12/06 10:26:58;;;;;;;34.03;20.20;;;;;;;6.07;83.01;97709.59;5074480;28;20570;-67
2020/12/06 10:29:25;;;;;;;40.55;22.00;;;;;;;6.48;80.54;97703.13;5074115;28;20185;-67
2020/12/06 10:31:52;;;;;;;39.00;22.70;;;;;;;6.55;80.17;97699.03;5074206;28;20236;-68
2020/12/06 10:34:18;;;;;;;38.97;21.90;;;;;;;6.30;80.86;97689.25;5073806;28;20193;-67
2020/12/06 10:36:49;;;;;;;36.38;22.05;;;;;;;6.15;81.73;97679.66;5073504;28;20317;-67
2020/12/06 10:39:15;;;;;;;40.28;21.70;;;;;;;6.24;81.88;97687.88;5073765;28;20193;-67
2020/12/06 10:41:43;;;;;;;42.13;24.85;;;;;;;6.79;79.57;97682.22;5074290;28;20200;-68
2020/12/06 10:44:09;;;;;;;36.53;21.20;;;;;;;6.80;79.17;97674.03;5073618;28;20196;-68
2020/12/06 10:46:35;;;;;;;40.83;24.67;;;;;;;6.68;79.43;97654.41;5073574;28;20204;-68
2020/12/06 10:49:01;;;;;;;33.75;19.98;;;;;;;6.66;78.95;97661.69;5073751;28;20189;-67
2020/12/06 10:51:28;;;;;;;36.80;21.88;;;;;;;6.20;81.60;97658.81;5073720;28;20300;-67
2020/12/06 10:53:54;;;;;;;36.55;22.52;;;;;;;6.04;82.14;97651.03;5074035;28;20318;-67
2020/12/06 10:56:21;;;;;;;39.60;22.55;;;;;;;6.04;82.32;97645.69;5073026;28;20535;-67
2020/12/06 10:58:48;;;;;;;36.03;22.75;;;;;;;6.08;82.36;97655.19;5074017;28;20630;-68
2020/12/06 11:01:15;;;;;;;38.30;23.83;;;;;;;5.91;83.44;97664.38;5073570;28;20597;-68
2020/12/06 11:03:41;;;;;;;36.97;22.67;;;;;;;5.88;83.45;97669.94;5073572;28;20605;-67
2020/12/06 11:06:08;;;;;;;39.05;23.50;;;;;;;5.91;83.23;97676.88;5073844;28;20284;-67
2020/12/06 11:08:34;;;;;;;37.47;21.63;;;;;;;5.83;83.61;97670.25;5073244;28;20183;-67
2020/12/06 11:11:01;;;;;;;36.90;19.70;;;;;;;5.64;84.31;97670.66;5073403;28;20203;-68
2020/12/06 11:13:27;;;;;;;42.70;23.42;;;;;;;5.71;84.73;97676.44;5073015;28;20200;-68
2020/12/06 11:15:54;;;;;;;38.00;21.88;;;;;;;5.92;83.58;97668.72;5073210;28;20200;-67
2020/12/06 11:18:21;;;;;;;42.08;22.90;;;;;;;5.96;83.53;97678.28;5073349;28;20222;-68
2020/12/06 11:20:47;;;;;;;38.95;22.73;;;;;;;6.13;82.18;97686.91;5073301;28;20565;-69
2020/12/06 11:23:14;;;;;;;38.15;21.00;;;;;;;5.97;82.72;97689.81;5073448;28;20637;-67
2020/12/06 11:25:41;;;;;;;35.58;19.13;;;;;;;6.07;81.92;97682.03;5072997;28;20207;-69